sensor_id;sensor_type;location;lat;lon;timestamp;pressure;altitude;pressure_sealevel;temperature;humidity
24752;BME280;27246;52.376;4.628;2023-05-07T00:04:19;101489.38;;;14.38;100.00
24752;BME280;27246;52.376;4.628;2023-05-07T00:09:21;101495.03;;;14.30;100.00
24752;BME280;27246;52.376;4.628;2023-05-07T00:14:23;101488.84;;;14.28;100.00
24752;BME280;27246;52.376;4.628;2023-05-07T00:19:25;101493.78;;;14.33;100.00
24752;BME280;27246;52.376;4.628;2023-05-07T00:24:26;101492.09;;;14.32;100.00
24752;BME280;27246;52.376;4.628;2023-05-07T00:29:28;101491.31;;;14.38;100.00
24752;BME280;27246;52.376;4.628;2023-05-07T00:34:30;101488.34;;;14.39;100.00
24752;BME280;27246;52.376;4.628;2023-05-07T00:39:31;101479.09;;;14.32;100.00
24752;BME280;27246;52.376;4.628;2023-05-07T00:44:33;101483.88;;;14.24;100.00
24752;BME280;27246;52.376;4.628;2023-05-07T00:49:39;101470.22;;;14.22;100.00
24752;BME280;27246;52.376;4.628;2023-05-07T00:54:43;101480.81;;;14.18;100.00
24752;BME280;27246;52.376;4.628;2023-05-07T00:59:44;101477.78;;;14.13;100.00
24752;BME280;27246;52.376;4.628;2023-05-07T01:04:46;101488.88;;;14.13;100.00
24752;BME280;27246;52.376;4.628;2023-05-07T01:09:49;101492.31;;;14.15;100.00
24752;BME280;27246;52.376;4.628;2023-05-07T01:14:54;101486.88;;;14.07;100.00
24752;BME280;27246;52.376;4.628;2023-05-07T01:19:56;101485.91;;;14.15;100.00
24752;BME280;27246;52.376;4.628;2023-05-07T01:24:59;101480.56;;;14.13;100.00
24752;BME280;27246;52.376;4.628;2023-05-07T01:30:04;101470.72;;;14.11;100.00
24752;BME280;27246;52.376;4.628;2023-05-07T01:35:09;101471.94;;;14.08;100.00
24752;BME280;27246;52.376;4.628;2023-05-07T01:40:13;101471.75;;;14.10;100.00
24752;BME280;27246;52.376;4.628;2023-05-07T01:45:15;101474.34;;;14.11;100.00
24752;BME280;27246;52.376;4.628;2023-05-07T01:50:18;101469.19;;;14.08;100.00
24752;BME280;27246;52.376;4.628;2023-05-07T01:55:21;101464.03;;;14.05;100.00
24752;BME280;27246;52.376;4.628;2023-05-07T02:00:23;101466.81;;;14.05;100.00
24752;BME280;27246;52.376;4.628;2023-05-07T02:05:25;101464.31;;;14.10;100.00
24752;BME280;27246;52.376;4.628;2023-05-07T02:10:33;101475.03;;;14.13;100.00
24752;BME280;27246;52.376;4.628;2023-05-07T02:15:35;101464.03;;;14.05;100.00
24752;BME280;27246;52.376;4.628;2023-05-07T02:20:38;101461.94;;;14.07;100.00
24752;BME280;27246;52.376;4.628;2023-05-07T02:25:40;101460.59;;;14.03;100.00
24752;BME280;27246;52.376;4.628;2023-05-07T02:30:42;101464.59;;;14.00;100.00
24752;BME280;27246;52.376;4.628;2023-05-07T02:35:44;101462.91;;;13.99;100.00
24752;BME280;27246;52.376;4.628;2023-05-07T02:40:48;101474.34;;;13.96;100.00
24752;BME280;27246;52.376;4.628;2023-05-07T02:46:06;101479.03;;;13.96;100.00
24752;BME280;27246;52.376;4.628;2023-05-07T02:51:12;101480.28;;;13.93;100.00
24752;BME280;27246;52.376;4.628;2023-05-07T02:56:16;101483.72;;;13.95;100.00
24752;BME280;27246;52.376;4.628;2023-05-07T03:01:18;101479.03;;;13.96;100.00
24752;BME280;27246;52.376;4.628;2023-05-07T03:06:26;101483.31;;;13.98;100.00
24752;BME280;27246;52.376;4.628;2023-05-07T03:11:28;101486.97;;;13.99;100.00
24752;BME280;27246;52.376;4.628;2023-05-07T03:16:30;101480.78;;;13.97;100.00
24752;BME280;27246;52.376;4.628;2023-05-07T03:21:32;101475.41;;;13.95;100.00
24752;BME280;27246;52.376;4.628;2023-05-07T03:26:35;101467.94;;;13.96;100.00
24752;BME280;27246;52.376;4.628;2023-05-07T03:31:37;101466.44;;;13.93;100.00
24752;BME280;27246;52.376;4.628;2023-05-07T03:36:39;101468.63;;;13.98;100.00
24752;BME280;27246;52.376;4.628;2023-05-07T03:41:43;101468.63;;;13.98;100.00
24752;BME280;27246;52.376;4.628;2023-05-07T03:46:45;101470.72;;;13.96;100.00
24752;BME280;27246;52.376;4.628;2023-05-07T03:51:47;101472.81;;;13.94;100.00
24752;BME280;27246;52.376;4.628;2023-05-07T03:56:49;101476.66;;;13.93;100.00
24752;BME280;27246;52.376;4.628;2023-05-07T04:01:51;101474.56;;;13.95;100.00
24752;BME280;27246;52.376;4.628;2023-05-07T04:06:56;101470.34;;;13.99;100.00
24752;BME280;27246;52.376;4.628;2023-05-07T04:11:58;101485.72;;;14.02;100.00
24752;BME280;27246;52.376;4.628;2023-05-07T04:17:00;101482.09;;;14.01;100.00
24752;BME280;27246;52.376;4.628;2023-05-07T04:22:02;101486.09;;;13.98;100.00
24752;BME280;27246;52.376;4.628;2023-05-07T04:27:05;101482.19;;;13.93;100.00
24752;BME280;27246;52.376;4.628;2023-05-07T04:32:09;101485.63;;;13.95;100.00
24752;BME280;27246;52.376;4.628;2023-05-07T04:37:13;101478.00;;;13.97;100.00
24752;BME280;27246;52.376;4.628;2023-05-07T04:42:16;101480.78;;;13.97;100.00
24752;BME280;27246;52.376;4.628;2023-05-07T04:47:25;101484.00;;;14.00;100.00
24752;BME280;27246;52.376;4.628;2023-05-07T04:52:27;101484.88;;;14.01;100.00
24752;BME280;27246;52.376;4.628;2023-05-07T04:57:29;101485.91;;;14.00;100.00
24752;BME280;27246;52.376;4.628;2023-05-07T05:02:31;101478.25;;;14.02;100.00
24752;BME280;27246;52.376;4.628;2023-05-07T05:07:34;101491.75;;;14.05;100.00
24752;BME280;27246;52.376;4.628;2023-05-07T05:12:37;101486.88;;;14.07;100.00
24752;BME280;27246;52.376;4.628;2023-05-07T05:17:39;101488.47;;;14.16;100.00
24752;BME280;27246;52.376;4.628;2023-05-07T05:22:42;101503.47;;;14.22;100.00
24752;BME280;27246;52.376;4.628;2023-05-07T05:27:46;101509.19;;;14.20;100.00
24752;BME280;27246;52.376;4.628;2023-05-07T05:32:48;101508.53;;;14.18;100.00
24752;BME280;27246;52.376;4.628;2023-05-07T05:37:50;101514.47;;;14.15;100.00
24752;BME280;27246;52.376;4.628;2023-05-07T05:42:56;101530.69;;;14.18;100.00
24752;BME280;27246;52.376;4.628;2023-05-07T05:47:59;101531.59;;;14.19;100.00
24752;BME280;27246;52.376;4.628;2023-05-07T05:53:02;101529.66;;;14.19;100.00
24752;BME280;27246;52.376;4.628;2023-05-07T05:58:04;101529.25;;;14.23;100.00
24752;BME280;27246;52.376;4.628;2023-05-07T06:03:10;101523.06;;;14.20;100.00
24752;BME280;27246;52.376;4.628;2023-05-07T06:08:13;101532.50;;;14.26;100.00
24752;BME280;27246;52.376;4.628;2023-05-07T06:13:16;101541.50;;;14.28;100.00
24752;BME280;27246;52.376;4.628;2023-05-07T06:18:18;101554.31;;;14.29;100.00
24752;BME280;27246;52.376;4.628;2023-05-07T06:23:21;101543.91;;;14.31;100.00
24752;BME280;27246;52.376;4.628;2023-05-07T06:28:23;101545.22;;;14.35;100.00
24752;BME280;27246;52.376;4.628;2023-05-07T06:33:25;101551.72;;;14.28;100.00
24752;BME280;27246;52.376;4.628;2023-05-07T06:38:27;101552.00;;;14.33;100.00
24752;BME280;27246;52.376;4.628;2023-05-07T06:43:29;101557.72;;;14.46;100.00
24752;BME280;27246;52.376;4.628;2023-05-07T06:48:48;101550.47;;;14.45;100.00
24752;BME280;27246;52.376;4.628;2023-05-07T06:53:49;101543.75;;;14.54;100.00
24752;BME280;27246;52.376;4.628;2023-05-07T06:58:51;101547.84;;;14.58;100.00
24752;BME280;27246;52.376;4.628;2023-05-07T07:03:54;101550.81;;;14.57;100.00
24752;BME280;27246;52.376;4.628;2023-05-07T07:08:58;101547.59;;;14.53;100.00
24752;BME280;27246;52.376;4.628;2023-05-07T07:13:59;101546.31;;;14.71;100.00
24752;BME280;27246;52.376;4.628;2023-05-07T07:19:04;101536.25;;;14.85;100.00
24752;BME280;27246;52.376;4.628;2023-05-07T07:24:06;101550.31;;;14.83;100.00
24752;BME280;27246;52.376;4.628;2023-05-07T07:29:08;101558.72;;;14.90;100.00
24752;BME280;27246;52.376;4.628;2023-05-07T07:34:09;101564.22;;;15.05;100.00
24752;BME280;27246;52.376;4.628;2023-05-07T07:39:12;101558.09;;;15.31;100.00
24752;BME280;27246;52.376;4.628;2023-05-07T07:44:14;101559.72;;;15.47;100.00
24752;BME280;27246;52.376;4.628;2023-05-07T07:49:22;101567.13;;;15.39;99.87
24752;BME280;27246;52.376;4.628;2023-05-07T07:54:24;101565.88;;;15.42;99.99
24752;BME280;27246;52.376;4.628;2023-05-07T07:59:26;101554.28;;;15.82;100.00
24752;BME280;27246;52.376;4.628;2023-05-07T08:04:28;101561.66;;;16.03;97.40
24752;BME280;27246;52.376;4.628;2023-05-07T08:09:32;101555.81;;;16.19;95.22
24752;BME280;27246;52.376;4.628;2023-05-07T08:14:35;101563.84;;;16.42;94.48
24752;BME280;27246;52.376;4.628;2023-05-07T08:19:40;101561.31;;;16.47;90.45
24752;BME280;27246;52.376;4.628;2023-05-07T08:24:45;101572.94;;;16.64;90.11
24752;BME280;27246;52.376;4.628;2023-05-07T08:29:47;101572.88;;;16.99;91.27
24752;BME280;27246;52.376;4.628;2023-05-07T08:34:55;101582.56;;;17.23;84.60
24752;BME280;27246;52.376;4.628;2023-05-07T08:39:57;101593.69;;;17.10;85.07
24752;BME280;27246;52.376;4.628;2023-05-07T08:45:04;101588.13;;;17.10;85.73
24752;BME280;27246;52.376;4.628;2023-05-07T08:50:11;101594.53;;;17.17;85.66
24752;BME280;27246;52.376;4.628;2023-05-07T08:55:14;101593.09;;;17.48;82.01
24752;BME280;27246;52.376;4.628;2023-05-07T09:00:17;101603.63;;;17.72;82.58
24752;BME280;27246;52.376;4.628;2023-05-07T09:05:22;101603.03;;;17.97;81.03
24752;BME280;27246;52.376;4.628;2023-05-07T09:10:25;101609.44;;;18.11;80.40
24752;BME280;27246;52.376;4.628;2023-05-07T09:15:28;101605.38;;;17.93;81.50
24752;BME280;27246;52.376;4.628;2023-05-07T09:20:30;101603.00;;;17.84;81.61
24752;BME280;27246;52.376;4.628;2023-05-07T09:25:34;101605.16;;;17.88;81.67
24752;BME280;27246;52.376;4.628;2023-05-07T09:30:42;101596.31;;;18.25;80.16
24752;BME280;27246;52.376;4.628;2023-05-07T09:35:50;101594.38;;;18.18;79.09
24752;BME280;27246;52.376;4.628;2023-05-07T09:41:07;101608.16;;;18.13;77.60
24752;BME280;27246;52.376;4.628;2023-05-07T09:46:30;101597.38;;;18.37;78.69
24752;BME280;27246;52.376;4.628;2023-05-07T09:51:41;101606.84;;;18.29;79.12
24752;BME280;27246;52.376;4.628;2023-05-07T09:56:45;101602.78;;;18.12;78.42
24752;BME280;27246;52.376;4.628;2023-05-07T10:01:57;101592.00;;;18.29;78.42
24752;BME280;27246;52.376;4.628;2023-05-07T10:07:01;101608.53;;;18.37;76.01
24752;BME280;27246;52.376;4.628;2023-05-07T10:12:07;101603.84;;;18.96;74.51
24752;BME280;27246;52.376;4.628;2023-05-07T10:17:11;101615.19;;;19.08;73.02
24752;BME280;27246;52.376;4.628;2023-05-07T10:22:15;101615.81;;;19.03;71.95
24752;BME280;27246;52.376;4.628;2023-05-07T10:27:21;101613.50;;;18.93;72.59
24752;BME280;27246;52.376;4.628;2023-05-07T10:32:42;101608.81;;;18.87;75.64
24752;BME280;27246;52.376;4.628;2023-05-07T10:37:53;101616.34;;;18.87;73.83
24752;BME280;27246;52.376;4.628;2023-05-07T10:43:05;101618.13;;;19.13;73.26
24752;BME280;27246;52.376;4.628;2023-05-07T10:48:19;101602.56;;;19.30;71.63
24752;BME280;27246;52.376;4.628;2023-05-07T10:53:37;101608.97;;;19.06;71.22
24752;BME280;27246;52.376;4.628;2023-05-07T10:58:44;101617.75;;;19.03;72.48
24752;BME280;27246;52.376;4.628;2023-05-07T11:04:13;101623.19;;;19.29;72.61
24752;BME280;27246;52.376;4.628;2023-05-07T11:09:21;101618.94;;;19.27;71.49
24752;BME280;27246;52.376;4.628;2023-05-07T11:19:55;101617.88;;;19.21;71.16
24752;BME280;27246;52.376;4.628;2023-05-07T11:25:06;101617.88;;;19.21;71.93
24752;BME280;27246;52.376;4.628;2023-05-07T11:30:10;101613.03;;;19.42;70.35
24752;BME280;27246;52.376;4.628;2023-05-07T11:35:12;101622.13;;;19.69;66.96
24752;BME280;27246;52.376;4.628;2023-05-07T11:40:17;101613.09;;;19.92;66.29
24752;BME280;27246;52.376;4.628;2023-05-07T11:45:25;101616.03;;;19.78;65.33
24752;BME280;27246;52.376;4.628;2023-05-07T11:50:27;101613.94;;;19.92;66.50
24752;BME280;27246;52.376;4.628;2023-05-07T11:55:28;101623.25;;;20.11;63.52
24752;BME280;27246;52.376;4.628;2023-05-07T12:00:30;101626.78;;;20.25;63.78
24752;BME280;27246;52.376;4.628;2023-05-07T12:05:32;101624.53;;;20.77;61.96
24752;BME280;27246;52.376;4.628;2023-05-07T12:10:33;101619.56;;;21.28;60.69
24752;BME280;27246;52.376;4.628;2023-05-07T12:15:35;101629.69;;;21.29;59.48
24752;BME280;27246;52.376;4.628;2023-05-07T12:20:37;101642.91;;;21.22;57.50
24752;BME280;27246;52.376;4.628;2023-05-07T12:25:40;101641.84;;;21.05;56.38
24752;BME280;27246;52.376;4.628;2023-05-07T12:30:49;101645.91;;;20.28;58.51
24752;BME280;27246;52.376;4.628;2023-05-07T12:35:54;101651.47;;;20.10;65.46
24752;BME280;27246;52.376;4.628;2023-05-07T12:40:56;101656.94;;;19.73;66.38
24752;BME280;27246;52.376;4.628;2023-05-07T12:46:01;101661.09;;;19.57;68.13
24752;BME280;27246;52.376;4.628;2023-05-07T12:51:05;101673.28;;;19.31;69.61
24752;BME280;27246;52.376;4.628;2023-05-07T12:56:07;101693.81;;;19.05;71.50
24752;BME280;27246;52.376;4.628;2023-05-07T13:01:09;101683.78;;;18.84;72.21
24752;BME280;27246;52.376;4.628;2023-05-07T13:06:11;101690.88;;;18.73;73.91
24752;BME280;27246;52.376;4.628;2023-05-07T13:11:16;101693.03;;;18.77;74.11
24752;BME280;27246;52.376;4.628;2023-05-07T13:16:17;101698.41;;;18.66;74.90
24752;BME280;27246;52.376;4.628;2023-05-07T13:21:22;101690.03;;;18.72;76.10
24752;BME280;27246;52.376;4.628;2023-05-07T13:26:24;101702.47;;;18.76;80.17
24752;BME280;27246;52.376;4.628;2023-05-07T13:31:27;101701.16;;;18.92;85.42
24752;BME280;27246;52.376;4.628;2023-05-07T13:36:30;101701.81;;;18.81;81.61
24752;BME280;27246;52.376;4.628;2023-05-07T13:41:34;101710.41;;;18.66;81.38
24752;BME280;27246;52.376;4.628;2023-05-07T13:46:36;101717.09;;;18.72;84.34
24752;BME280;27246;52.376;4.628;2023-05-07T13:51:38;101709.78;;;18.51;83.38
24752;BME280;27246;52.376;4.628;2023-05-07T13:56:40;101710.47;;;18.39;83.01
24752;BME280;27246;52.376;4.628;2023-05-07T14:01:41;101708.09;;;18.36;83.41
24752;BME280;27246;52.376;4.628;2023-05-07T14:06:43;101710.88;;;18.36;85.41
24752;BME280;27246;52.376;4.628;2023-05-07T14:11:45;101719.25;;;18.16;85.70
24752;BME280;27246;52.376;4.628;2023-05-07T14:16:48;101718.63;;;18.21;87.16
24752;BME280;27246;52.376;4.628;2023-05-07T14:21:53;101711.97;;;18.15;87.27
24752;BME280;27246;52.376;4.628;2023-05-07T14:26:54;101723.97;;;18.09;85.59
24752;BME280;27246;52.376;4.628;2023-05-07T14:31:56;101722.88;;;18.10;86.77
24752;BME280;27246;52.376;4.628;2023-05-07T14:36:59;101720.31;;;18.02;85.43
24752;BME280;27246;52.376;4.628;2023-05-07T14:42:01;101725.28;;;18.07;86.61
24752;BME280;27246;52.376;4.628;2023-05-07T14:47:02;101716.88;;;18.00;88.29
24752;BME280;27246;52.376;4.628;2023-05-07T14:52:04;101724.59;;;17.98;88.58
24752;BME280;27246;52.376;4.628;2023-05-07T14:57:09;101719.03;;;17.85;91.98
24752;BME280;27246;52.376;4.628;2023-05-07T15:02:11;101716.56;;;17.68;95.50
24752;BME280;27246;52.376;4.628;2023-05-07T15:07:14;101722.13;;;17.68;99.08
24752;BME280;27246;52.376;4.628;2023-05-07T15:12:16;101719.59;;;17.67;99.38
24752;BME280;27246;52.376;4.628;2023-05-07T15:17:18;101734.81;;;17.77;99.58
24752;BME280;27246;52.376;4.628;2023-05-07T15:22:23;101741.06;;;17.79;100.00
24752;BME280;27246;52.376;4.628;2023-05-07T15:27:25;101738.69;;;17.76;99.97
24752;BME280;27246;52.376;4.628;2023-05-07T15:32:27;101730.56;;;17.82;100.00
24752;BME280;27246;52.376;4.628;2023-05-07T15:37:30;101728.88;;;18.01;100.00
24752;BME280;27246;52.376;4.628;2023-05-07T15:42:33;101742.41;;;18.04;97.76
24752;BME280;27246;52.376;4.628;2023-05-07T15:47:34;101735.97;;;18.16;99.36
24752;BME280;27246;52.376;4.628;2023-05-07T15:52:36;101743.88;;;17.86;96.08
24752;BME280;27246;52.376;4.628;2023-05-07T15:57:39;101739.56;;;17.77;95.71
24752;BME280;27246;52.376;4.628;2023-05-07T16:02:41;101739.75;;;17.69;94.96
24752;BME280;27246;52.376;4.628;2023-05-07T16:07:43;101749.16;;;17.61;91.40
24752;BME280;27246;52.376;4.628;2023-05-07T16:12:44;101745.97;;;17.71;91.22
24752;BME280;27246;52.376;4.628;2023-05-07T16:17:47;101748.31;;;17.74;94.33
24752;BME280;27246;52.376;4.628;2023-05-07T16:22:54;101750.44;;;17.65;93.00
24752;BME280;27246;52.376;4.628;2023-05-07T16:27:55;101764.56;;;17.64;93.62
24752;BME280;27246;52.376;4.628;2023-05-07T16:32:57;101751.75;;;17.69;97.14
24752;BME280;27246;52.376;4.628;2023-05-07T16:37:59;101751.50;;;17.64;99.84
24752;BME280;27246;52.376;4.628;2023-05-07T16:43:01;101754.72;;;17.61;100.00
24752;BME280;27246;52.376;4.628;2023-05-07T16:48:04;101761.34;;;17.60;100.00
24752;BME280;27246;52.376;4.628;2023-05-07T16:53:06;101752.53;;;17.50;100.00
24752;BME280;27246;52.376;4.628;2023-05-07T16:58:09;101752.09;;;17.46;100.00
24752;BME280;27246;52.376;4.628;2023-05-07T17:03:11;101758.91;;;17.30;100.00
24752;BME280;27246;52.376;4.628;2023-05-07T17:08:13;101750.00;;;17.07;100.00
24752;BME280;27246;52.376;4.628;2023-05-07T17:13:15;101756.13;;;16.95;99.54
24752;BME280;27246;52.376;4.628;2023-05-07T17:18:16;101757.44;;;16.99;100.00
24752;BME280;27246;52.376;4.628;2023-05-07T17:23:18;101755.34;;;17.08;100.00
24752;BME280;27246;52.376;4.628;2023-05-07T17:28:21;101751.00;;;16.99;100.00
24752;BME280;27246;52.376;4.628;2023-05-07T17:33:23;101760.38;;;16.91;97.78
24752;BME280;27246;52.376;4.628;2023-05-07T17:38:24;101747.53;;;16.90;99.40
24752;BME280;27246;52.376;4.628;2023-05-07T17:43:26;101757.81;;;16.90;99.21
24752;BME280;27246;52.376;4.628;2023-05-07T17:48:28;101768.88;;;16.83;97.67
24752;BME280;27246;52.376;4.628;2023-05-07T17:53:29;101770.97;;;16.81;98.53
24752;BME280;27246;52.376;4.628;2023-05-07T17:58:31;101775.69;;;16.80;99.48
24752;BME280;27246;52.376;4.628;2023-05-07T18:03:37;101784.81;;;16.68;98.37
24752;BME280;27246;52.376;4.628;2023-05-07T18:08:38;101788.25;;;16.70;100.00
24752;BME280;27246;52.376;4.628;2023-05-07T18:13:40;101791.44;;;16.67;99.25
24752;BME280;27246;52.376;4.628;2023-05-07T18:18:42;101799.13;;;16.65;99.62
24752;BME280;27246;52.376;4.628;2023-05-07T18:23:44;101803.97;;;16.56;99.50
24752;BME280;27246;52.376;4.628;2023-05-07T18:28:46;101808.03;;;16.53;98.60
24752;BME280;27246;52.376;4.628;2023-05-07T18:33:51;101810.53;;;16.48;98.40
24752;BME280;27246;52.376;4.628;2023-05-07T18:38:53;101820.06;;;16.39;98.37
24752;BME280;27246;52.376;4.628;2023-05-07T18:43:55;101817.72;;;16.36;99.11
24752;BME280;27246;52.376;4.628;2023-05-07T18:48:57;101821.94;;;16.32;99.41
24752;BME280;27246;52.376;4.628;2023-05-07T18:53:59;101820.16;;;16.24;98.64
24752;BME280;27246;52.376;4.628;2023-05-07T18:59:02;101819.31;;;16.24;99.23
24752;BME280;27246;52.376;4.628;2023-05-07T19:04:04;101814.53;;;16.17;99.88
24752;BME280;27246;52.376;4.628;2023-05-07T19:09:05;101823.47;;;16.13;99.86
24752;BME280;27246;52.376;4.628;2023-05-07T19:14:07;101823.88;;;16.10;100.00
24752;BME280;27246;52.376;4.628;2023-05-07T19:19:11;101823.56;;;16.05;100.00
24752;BME280;27246;52.376;4.628;2023-05-07T19:24:13;101832.13;;;16.03;100.00
24752;BME280;27246;52.376;4.628;2023-05-07T19:29:16;101840.00;;;15.99;100.00
24752;BME280;27246;52.376;4.628;2023-05-07T19:34:19;101844.41;;;15.94;100.00
24752;BME280;27246;52.376;4.628;2023-05-07T19:39:23;101849.50;;;15.90;99.98
24752;BME280;27246;52.376;4.628;2023-05-07T19:44:24;101854.41;;;15.88;100.00
24752;BME280;27246;52.376;4.628;2023-05-07T19:49:27;101860.53;;;15.84;100.00
24752;BME280;27246;52.376;4.628;2023-05-07T19:54:28;101870.28;;;15.79;100.00
24752;BME280;27246;52.376;4.628;2023-05-07T19:59:31;101874.16;;;15.78;100.00
24752;BME280;27246;52.376;4.628;2023-05-07T20:04:33;101891.38;;;15.74;100.00
24752;BME280;27246;52.376;4.628;2023-05-07T20:09:38;101891.97;;;15.69;100.00
24752;BME280;27246;52.376;4.628;2023-05-07T20:14:40;101896.56;;;15.62;100.00
24752;BME280;27246;52.376;4.628;2023-05-07T20:19:42;101903.38;;;15.59;100.00
24752;BME280;27246;52.376;4.628;2023-05-07T20:24:43;101903.53;;;15.58;100.00
24752;BME280;27246;52.376;4.628;2023-05-07T20:29:45;101908.66;;;15.54;100.00
24752;BME280;27246;52.376;4.628;2023-05-07T20:34:47;101910.72;;;15.37;100.00
24752;BME280;27246;52.376;4.628;2023-05-07T20:39:48;101918.13;;;15.30;100.00
24752;BME280;27246;52.376;4.628;2023-05-07T20:44:52;101915.72;;;15.27;100.00
24752;BME280;27246;52.376;4.628;2023-05-07T20:49:56;101911.66;;;15.15;100.00
24752;BME280;27246;52.376;4.628;2023-05-07T20:54:58;101923.63;;;15.00;100.00
24752;BME280;27246;52.376;4.628;2023-05-07T21:00:01;101926.06;;;14.95;100.00
24752;BME280;27246;52.376;4.628;2023-05-07T21:05:03;101931.34;;;14.90;100.00
24752;BME280;27246;52.376;4.628;2023-05-07T21:10:05;101924.13;;;14.81;100.00
24752;BME280;27246;52.376;4.628;2023-05-07T21:15:08;101933.50;;;14.80;100.00
24752;BME280;27246;52.376;4.628;2023-05-07T21:20:09;101928.72;;;14.74;100.00
24752;BME280;27246;52.376;4.628;2023-05-07T21:25:12;101924.19;;;14.73;100.00
24752;BME280;27246;52.376;4.628;2023-05-07T21:30:14;101925.06;;;14.65;100.00
24752;BME280;27246;52.376;4.628;2023-05-07T21:35:16;101920.22;;;14.67;100.00
24752;BME280;27246;52.376;4.628;2023-05-07T21:40:18;101925.34;;;14.55;100.00
24752;BME280;27246;52.376;4.628;2023-05-07T21:45:23;101929.53;;;14.51;100.00
24752;BME280;27246;52.376;4.628;2023-05-07T21:50:25;101931.44;;;14.51;100.00
24752;BME280;27246;52.376;4.628;2023-05-07T21:55:27;101926.09;;;14.49;100.00
24752;BME280;27246;52.376;4.628;2023-05-07T22:00:28;101934.59;;;14.48;100.00
24752;BME280;27246;52.376;4.628;2023-05-07T22:05:31;101936.84;;;14.44;100.00
24752;BME280;27246;52.376;4.628;2023-05-07T22:10:34;101942.47;;;14.36;100.00
24752;BME280;27246;52.376;4.628;2023-05-07T22:15:37;101942.75;;;14.41;100.00
24752;BME280;27246;52.376;4.628;2023-05-07T22:20:56;101947.94;;;14.44;100.00
24752;BME280;27246;52.376;4.628;2023-05-07T22:25:58;101951.06;;;14.41;100.00
24752;BME280;27246;52.376;4.628;2023-05-07T22:31:00;101938.44;;;14.38;100.00
24752;BME280;27246;52.376;4.628;2023-05-07T22:36:01;101943.47;;;14.43;100.00
24752;BME280;27246;52.376;4.628;2023-05-07T22:41:03;101951.97;;;14.42;100.00
24752;BME280;27246;52.376;4.628;2023-05-07T22:46:06;101952.88;;;14.34;100.00
24752;BME280;27246;52.376;4.628;2023-05-07T22:51:14;101957.91;;;14.30;100.00
24752;BME280;27246;52.376;4.628;2023-05-07T22:56:16;101952.41;;;14.22;100.00
24752;BME280;27246;52.376;4.628;2023-05-07T23:01:17;101952.59;;;14.20;100.00
24752;BME280;27246;52.376;4.628;2023-05-07T23:06:20;101954.00;;;14.16;100.00
24752;BME280;27246;52.376;4.628;2023-05-07T23:11:23;101959.91;;;14.13;100.00
24752;BME280;27246;52.376;4.628;2023-05-07T23:16:24;101950.41;;;14.08;100.00
24752;BME280;27246;52.376;4.628;2023-05-07T23:21:26;101946.44;;;14.02;100.00
24752;BME280;27246;52.376;4.628;2023-05-07T23:26:28;101952.16;;;14.00;100.00
24752;BME280;27246;52.376;4.628;2023-05-07T23:31:30;101946.16;;;13.97;100.00
24752;BME280;27246;52.376;4.628;2023-05-07T23:36:32;101953.94;;;13.93;100.00
24752;BME280;27246;52.376;4.628;2023-05-07T23:41:33;101937.31;;;13.93;100.00
24752;BME280;27246;52.376;4.628;2023-05-07T23:46:35;101943.28;;;13.74;100.00
24752;BME280;27246;52.376;4.628;2023-05-07T23:51:37;101944.13;;;13.74;100.00
24752;BME280;27246;52.376;4.628;2023-05-07T23:56:39;101939.16;;;13.70;100.00
